Pagina principale
METAR-TAF:

METAR-TAF

Aeroporti :

Aeroporto Internazionale di Yap

Yap, Micronesia

latitudine: 09-29N, longitudine: 138-05E, altezza: 28 m

Osservazione

Il bollettino è stato emesso 47 minuti fa, alle 20:52 UTC
Vento calmo
Temperature 27°C
Umidità 89%
Pressione 1009 hPa
Visibilità: 19.3 km
Nubi sparse ad un'altezza di 1600 ft, Cumulonembo.
Nubi sparse ad un'altezza di 13000 ft
Nuvoloso ad un'altezza di 30000 ft
rovesci nelle vicinanze

METAR: PTYA 202052Z 00000KT 12SM VCSH SCT016CB SCT130 BKN300 27/25 A2981 RMK VCSH S CB NE AND SE-S SLP096 8/371 T02650254 52014

Ora: 07:39 (21:39 UTC)

Previsione

Il bollettino è stato emesso 4 ore e 10 minuti fa, alle 17:29 UTC
Previsione valida dal 20 alle 18 UTC al 21 alle 18 UTC
Vento 5 kt da direzioni variabili
Visibilità: 10 km
Poco nuvoloso ad un'altezza di 1600 ft
Nubi sparse ad un'altezza di 12000 ft
rovesci nelle vicinanze

TAF: PTYA 201729Z 2018/2118 VRB05KT P6SM VCSH FEW016 SCT120

Osservazioni e previsioni meteorologiche di più di 4000 aeroporti (messaggi METAR e TAF).

Le stazioni disponibili sono rappresentate dai dischi gialli e rossi sulla carta.

Puntare il mouse per vedere il nome della stazione.

Clicca sopra per visualizzare le osservazioni e previsioni meteorologiche.

Per cambiare la mappa : fare clic sui pulsanti verdi con una croce nera per ingrandire, il pulsante verde con un trattino per diminuire, o sulla freccia verde per le mappe adiacenti.


METAR-TAF: